createdAt,value
2019-04-26T00:00:00.300Z,1.80
2019-04-26T00:02:45.560Z,2.50
2019-04-26T00:05:14.737Z,2.17
2019-04-26T00:07:43.108Z,2.40
2019-04-26T00:10:16.052Z,2.37
2019-04-26T00:13:04.549Z,1.73
2019-04-26T00:15:43.402Z,2.10
2019-04-26T00:18:12.816Z,2.00
2019-04-26T00:20:41.104Z,2.17
2019-04-26T00:23:10.595Z,1.77
2019-04-26T00:25:39.269Z,1.90
2019-04-26T00:28:07.409Z,1.77
2019-04-26T00:30:35.596Z,1.80
2019-04-26T00:33:03.802Z,1.80
2019-04-26T00:35:31.925Z,2.23
2019-04-26T00:38:00.384Z,1.90
2019-04-26T00:40:28.499Z,1.53
2019-04-26T00:42:58.203Z,1.67
2019-04-26T00:45:29.724Z,1.90
2019-04-26T00:47:58.207Z,1.93
2019-04-26T00:50:26.807Z,2.10
2019-04-26T00:52:56.074Z,1.90
2019-04-26T00:55:24.573Z,1.77
2019-04-26T00:57:53.028Z,1.53
2019-04-26T01:00:22.355Z,1.80
2019-04-26T01:02:52.119Z,1.80
2019-04-26T01:05:20.900Z,1.90
2019-04-26T01:07:50.999Z,1.70
2019-04-26T01:10:19.660Z,1.90
2019-04-26T01:12:48.278Z,1.63
2019-04-26T01:15:18.794Z,1.73
2019-04-26T01:17:46.505Z,1.70
2019-04-26T01:20:14.786Z,1.87
2019-04-26T01:22:44.400Z,1.90
2019-04-26T01:25:32.110Z,1.80
2019-04-26T01:28:00.452Z,1.53
2019-04-26T01:30:49.353Z,1.90
2019-04-26T01:33:19.162Z,1.80
2019-04-26T01:35:57.247Z,1.70
2019-04-26T01:38:25.764Z,1.83
2019-04-26T01:40:55.801Z,2.00
2019-04-26T01:43:43.646Z,1.60
2019-04-26T01:46:16.773Z,1.70
2019-04-26T01:48:46.679Z,1.70
2019-04-26T01:51:26.854Z,1.80
2019-04-26T01:53:55.542Z,1.50
2019-04-26T01:56:25.203Z,1.90
2019-04-26T01:58:53.921Z,1.83
2019-04-26T02:01:40.290Z,1.60
2019-04-26T02:04:08.789Z,1.80
2019-04-26T02:06:36.869Z,1.50
2019-04-26T02:09:07.957Z,1.50
2019-04-26T02:11:36.568Z,1.40
2019-04-26T02:14:05.351Z,1.70
2019-04-26T02:16:33.875Z,1.77
2019-04-26T02:19:02.310Z,1.83
2019-04-26T02:21:35.192Z,1.77
2019-04-26T02:24:17.482Z,1.90
2019-04-26T02:26:46.571Z,1.63
2019-04-26T02:29:20.779Z,1.70
2019-04-26T02:31:52.041Z,1.33
2019-04-26T02:34:20.237Z,1.40
2019-04-26T02:36:58.056Z,1.60
2019-04-26T02:39:22.441Z,1.90
2019-04-26T02:41:51.618Z,1.50
2019-04-26T02:44:26.614Z,1.40
2019-04-26T02:47:01.023Z,1.70
2019-04-26T02:49:36.639Z,1.57
2019-04-26T02:52:15.430Z,1.63
2019-04-26T02:54:45.088Z,1.57
2019-04-26T02:57:14.768Z,1.70
2019-04-26T02:59:43.768Z,1.60
2019-04-26T03:02:15.371Z,1.80
2019-04-26T03:04:46.635Z,1.70
2019-04-26T03:07:20.921Z,1.70
2019-04-26T03:09:50.846Z,1.80
2019-04-26T03:12:22.379Z,1.90
2019-04-26T03:15:13.306Z,1.60
2019-04-26T03:17:39.902Z,2.10
2019-04-26T03:20:18.553Z,2.33
2019-04-26T03:23:05.435Z,2.43
2019-04-26T03:25:47.309Z,1.90
2019-04-26T03:28:22.922Z,2.40
2019-04-26T03:30:54.448Z,2.03
2019-04-26T03:33:54.003Z,2.27
2019-04-26T03:37:19.109Z,2.37
2019-04-26T03:39:44.358Z,2.43
2019-04-26T03:42:33.186Z,2.03
2019-04-26T03:45:21.028Z,2.40
2019-04-26T03:47:58.423Z,2.30
2019-04-26T03:50:35.249Z,2.13
2019-04-26T03:53:27.061Z,2.10
2019-04-26T03:56:16.950Z,2.00
2019-04-26T03:58:58.727Z,2.20
2019-04-26T04:01:31.702Z,1.87
2019-04-26T04:04:04.193Z,2.47
2019-04-26T04:06:52.621Z,2.07
2019-04-26T04:09:09.660Z,2.20
2019-04-26T04:12:10.065Z,1.90
2019-04-26T04:14:48.519Z,2.03
2019-04-26T04:17:21.698Z,2.03
2019-04-26T04:20:24.383Z,2.20
2019-04-26T04:23:18.551Z,1.97
2019-04-26T04:25:49.665Z,3.57
2019-04-26T04:28:56.288Z,1.90
2019-04-26T04:31:47.677Z,2.10
2019-04-26T04:34:34.577Z,2.10
2019-04-26T04:37:05.902Z,2.40
2019-04-26T04:39:44.848Z,1.83
2019-04-26T04:42:39.252Z,1.70
2019-04-26T04:45:42.474Z,1.90
2019-04-26T04:48:44.579Z,1.97
2019-04-26T04:51:51.657Z,1.80
2019-04-26T04:54:32.401Z,2.00
2019-04-26T04:57:06.369Z,1.70
2019-04-26T04:59:44.073Z,1.90
2019-04-26T05:02:26.426Z,2.23
2019-04-26T05:05:05.027Z,2.00
2019-04-26T05:08:06.522Z,1.73
2019-04-26T05:10:38.122Z,2.27
2019-04-26T05:13:25.165Z,1.73
2019-04-26T05:16:33.251Z,1.80
2019-04-26T05:19:31.351Z,1.97
2019-04-26T05:22:25.444Z,2.37
2019-04-26T05:25:42.350Z,2.10
2019-04-26T05:28:40.730Z,2.80
2019-04-26T05:31:25.700Z,3.23
2019-04-26T05:34:13.236Z,2.70
2019-04-26T05:37:04.379Z,2.87
2019-04-26T05:39:44.830Z,2.70
2019-04-26T05:42:29.268Z,2.57
2019-04-26T05:45:18.781Z,2.40
2019-04-26T05:48:06.262Z,2.60
2019-04-26T05:50:43.896Z,2.70
2019-04-26T05:53:35.018Z,2.80
2019-04-26T05:56:23.108Z,2.80
2019-04-26T05:58:54.609Z,2.70
2019-04-26T06:01:39.384Z,3.03
2019-04-26T06:04:27.796Z,2.97
2019-04-26T06:06:59.359Z,2.90
2019-04-26T06:09:36.481Z,2.90
2019-04-26T06:12:30.624Z,3.00
2019-04-26T06:15:36.392Z,2.67
2019-04-26T06:18:21.450Z,3.20
2019-04-26T06:20:52.514Z,2.80
2019-04-26T06:23:30.229Z,3.23
2019-04-26T06:26:25.655Z,3.13
2019-04-26T06:29:05.984Z,2.70
2019-04-26T06:31:35.601Z,2.40
2019-04-26T06:34:07.079Z,2.20
2019-04-26T06:36:44.133Z,2.23
2019-04-26T06:39:23.324Z,2.20
2019-04-26T06:42:12.684Z,1.40
2019-04-26T06:44:48.165Z,1.23
2019-04-26T06:47:26.698Z,0.90
2019-04-26T06:50:23.645Z,0.80
2019-04-26T06:53:01.569Z,0.80
2019-04-26T06:55:36.641Z,0.83
2019-04-26T06:58:07.900Z,0.70
2019-04-26T07:00:43.798Z,0.63
2019-04-26T07:03:15.604Z,0.70
2019-04-26T07:05:47.100Z,0.57
2019-04-26T07:08:42.421Z,0.70
2019-04-26T07:11:29.767Z,0.60
2019-04-26T07:14:18.588Z,0.50
2019-04-26T07:16:48.215Z,0.50
2019-04-26T07:19:52.882Z,0.67
2019-04-26T07:22:45.132Z,0.50
2019-04-26T07:25:28.436Z,0.43
2019-04-26T07:28:06.376Z,0.70
2019-04-26T07:30:34.236Z,0.80
2019-04-26T07:33:40.024Z,0.60
2019-04-26T07:36:26.048Z,0.53
2019-04-26T07:39:10.401Z,0.60
2019-04-26T07:41:51.388Z,2.13
2019-04-26T07:44:57.372Z,0.83
2019-04-26T07:47:54.346Z,2.37
2019-04-26T07:50:47.933Z,2.77
2019-04-26T07:53:28.370Z,3.10
2019-04-26T07:56:07.110Z,1.23
2019-04-26T07:58:41.729Z,1.73
2019-04-26T08:01:23.753Z,2.40
2019-04-26T08:03:59.709Z,1.03
2019-04-26T08:06:34.249Z,1.33
2019-04-26T08:09:09.610Z,1.40
2019-04-26T08:11:54.573Z,1.90
2019-04-26T08:14:28.961Z,5.63
2019-04-26T08:17:11.065Z,0.80
2019-04-26T08:19:59.557Z,0.77
2019-04-26T08:22:32.597Z,0.70
2019-04-26T08:25:03.387Z,0.70
2019-04-26T08:27:34.036Z,0.70
2019-04-26T08:30:10.072Z,0.60
2019-04-26T08:32:38.809Z,0.77
2019-04-26T08:35:16.029Z,0.70
2019-04-26T08:37:47.698Z,0.80
2019-04-26T08:40:27.515Z,0.70
2019-04-26T08:43:02.511Z,0.80
2019-04-26T08:45:35.356Z,0.70
2019-04-26T08:48:10.441Z,0.73
2019-04-26T08:50:42.167Z,1.40
2019-04-26T08:53:12.040Z,0.80
2019-04-26T08:55:43.461Z,0.80
2019-04-26T08:58:14.134Z,0.67
2019-04-26T09:00:55.488Z,0.80
2019-04-26T09:03:32.390Z,0.77
2019-04-26T09:06:05.716Z,0.80
2019-04-26T09:08:39.276Z,0.70
2019-04-26T09:11:09.084Z,0.60
2019-04-26T09:13:40.642Z,0.63
2019-04-26T09:16:11.959Z,0.70
2019-04-26T09:18:43.492Z,0.70
2019-04-26T09:21:13.380Z,0.70
2019-04-26T09:23:59.055Z,0.83
2019-04-26T09:26:34.946Z,0.60
2019-04-26T09:29:07.741Z,0.80
2019-04-26T09:31:50.365Z,0.80
2019-04-26T09:34:24.393Z,0.90
2019-04-26T09:36:52.809Z,0.60
2019-04-26T09:39:21.998Z,0.70
2019-04-26T09:41:50.757Z,0.90
2019-04-26T09:44:37.668Z,0.90
2019-04-26T09:47:17.335Z,0.80
2019-04-26T09:49:47.380Z,0.70
2019-04-26T09:52:20.096Z,0.80
2019-04-26T09:54:48.501Z,0.90
2019-04-26T09:57:17.000Z,0.63
2019-04-26T09:59:45.413Z,0.70
2019-04-26T10:02:13.829Z,0.63
2019-04-26T10:04:42.271Z,0.50
2019-04-26T10:07:10.671Z,0.70
2019-04-26T10:09:51.740Z,0.60
2019-04-26T10:12:28.858Z,0.50
2019-04-26T10:15:01.525Z,0.63
2019-04-26T10:17:31.252Z,0.53
2019-04-26T10:19:59.340Z,0.47
2019-04-26T10:22:29.099Z,0.50
2019-04-26T10:24:57.379Z,0.40
2019-04-26T10:27:25.513Z,0.43
2019-04-26T10:29:56.539Z,0.47
2019-04-26T10:32:26.253Z,0.50
2019-04-26T10:34:53.928Z,0.40
2019-04-26T10:37:22.002Z,0.50
2019-04-26T10:39:50.114Z,0.40
2019-04-26T10:42:18.547Z,0.40
2019-04-26T10:44:46.644Z,0.50
2019-04-26T10:47:15.788Z,0.40
2019-04-26T10:49:48.868Z,0.40
2019-04-26T10:52:35.487Z,0.43
2019-04-26T10:55:06.087Z,0.47
2019-04-26T10:57:39.101Z,0.50
2019-04-26T11:00:10.200Z,0.50
2019-04-26T11:02:38.630Z,0.50
2019-04-26T11:05:07.049Z,0.53
2019-04-26T11:07:35.879Z,0.50
2019-04-26T11:10:06.302Z,0.40
2019-04-26T11:12:34.726Z,0.50
2019-04-26T11:15:06.033Z,0.40
2019-04-26T11:17:33.000Z,0.40
2019-04-26T11:20:01.088Z,0.50
2019-04-26T11:22:29.671Z,0.60
2019-04-26T11:24:58.996Z,0.60
2019-04-26T11:27:27.079Z,0.43
2019-04-26T11:29:55.316Z,0.53
2019-04-26T11:32:23.480Z,0.50
2019-04-26T11:34:54.461Z,0.40
2019-04-26T11:37:21.644Z,0.70
2019-04-26T11:39:50.341Z,0.40
2019-04-26T11:42:19.517Z,0.50
2019-04-26T11:44:49.149Z,0.50
2019-04-26T11:47:17.294Z,0.40
2019-04-26T11:49:45.730Z,0.40
2019-04-26T11:52:13.857Z,0.50
2019-04-26T11:54:42.252Z,0.50
2019-04-26T11:57:12.203Z,0.60
2019-04-26T11:59:40.803Z,0.30
2019-04-26T12:02:12.335Z,0.40
2019-04-26T12:04:44.242Z,0.30
2019-04-26T12:07:13.969Z,0.60
2019-04-26T12:09:43.697Z,0.50
2019-04-26T12:12:13.081Z,0.57
2019-04-26T12:14:41.834Z,0.40
2019-04-26T12:17:10.283Z,0.50
2019-04-26T12:19:38.368Z,0.43
2019-04-26T12:22:08.439Z,0.30
2019-04-26T12:24:36.696Z,0.70
2019-04-26T12:27:04.824Z,0.50
2019-04-26T12:29:33.315Z,0.60
2019-04-26T12:32:01.749Z,0.60
2019-04-26T12:34:30.156Z,0.40
2019-04-26T12:36:58.577Z,0.40
2019-04-26T12:39:26.729Z,0.53
2019-04-26T12:41:54.816Z,0.57
2019-04-26T12:44:24.542Z,0.50
2019-04-26T12:46:54.276Z,0.67
2019-04-26T12:49:24.286Z,0.50
2019-04-26T12:51:52.500Z,0.50
2019-04-26T12:54:20.927Z,0.60
2019-04-26T12:56:49.346Z,0.53
2019-04-26T12:59:17.431Z,0.67
2019-04-26T13:01:46.438Z,0.60
2019-04-26T13:04:15.414Z,0.50
2019-04-26T13:06:56.805Z,0.40
2019-04-26T13:09:26.589Z,0.70
2019-04-26T13:11:57.808Z,0.60
2019-04-26T13:14:44.457Z,0.70
2019-04-26T13:17:17.462Z,0.70
2019-04-26T13:19:49.597Z,0.70
2019-04-26T13:22:16.870Z,0.90
2019-04-26T13:24:45.333Z,0.77
2019-04-26T13:27:13.493Z,0.80
2019-04-26T13:29:41.901Z,0.67
2019-04-26T13:32:10.005Z,0.73
2019-04-26T13:34:38.340Z,0.60
2019-04-26T13:37:06.557Z,0.50
2019-04-26T13:39:34.637Z,0.70
2019-04-26T13:42:09.163Z,0.60
2019-04-26T13:44:51.237Z,0.60
2019-04-26T13:47:26.992Z,0.60
2019-04-26T13:50:03.027Z,0.60
2019-04-26T13:52:31.152Z,0.67
2019-04-26T13:54:59.232Z,1.00
2019-04-26T13:57:27.337Z,0.60
2019-04-26T13:59:55.744Z,0.60
2019-04-26T14:02:24.177Z,0.50
2019-04-26T14:04:52.967Z,1.00
2019-04-26T14:07:24.521Z,0.53
2019-04-26T14:09:51.149Z,0.70
2019-04-26T14:12:19.571Z,0.93
2019-04-26T14:14:48.318Z,0.93
2019-04-26T14:17:16.751Z,1.10
2019-04-26T14:19:45.374Z,1.40
2019-04-26T14:22:16.989Z,1.10
2019-04-26T14:24:47.045Z,1.23
2019-04-26T14:27:17.112Z,1.17
2019-04-26T14:29:45.523Z,1.50
2019-04-26T14:32:13.608Z,1.20
2019-04-26T14:34:42.030Z,1.30
2019-04-26T14:37:14.938Z,1.30
2019-04-26T14:39:50.082Z,1.27
2019-04-26T14:42:10.819Z,1.20
2019-04-26T14:44:48.853Z,1.23
2019-04-26T14:47:14.777Z,1.50
2019-04-26T14:49:42.695Z,1.30
2019-04-26T14:52:29.056Z,1.43
2019-04-26T14:54:57.206Z,1.13
2019-04-26T14:57:30.997Z,1.30
2019-04-26T14:59:57.484Z,1.20
2019-04-26T15:02:30.549Z,1.20
2019-04-26T15:05:12.315Z,0.90
2019-04-26T15:07:51.488Z,1.00
2019-04-26T15:10:21.216Z,0.90
2019-04-26T15:12:58.317Z,1.33
2019-04-26T15:15:19.857Z,0.80
2019-04-26T15:17:48.290Z,0.80
2019-04-26T15:20:20.790Z,0.93
2019-04-26T15:22:49.903Z,1.10
2019-04-26T15:25:17.081Z,1.10
2019-04-26T15:27:45.181Z,1.03
2019-04-26T15:30:13.720Z,1.10
2019-04-26T15:32:42.687Z,1.30
2019-04-26T15:35:15.512Z,1.00
2019-04-26T15:37:42.223Z,1.00
2019-04-26T15:40:31.885Z,0.80
2019-04-26T15:43:02.984Z,1.07
2019-04-26T15:45:38.839Z,1.00
2019-04-26T15:48:09.547Z,0.90
2019-04-26T15:50:50.126Z,1.27
2019-04-26T15:53:14.686Z,1.00
2019-04-26T15:55:43.541Z,0.80
2019-04-26T15:58:11.869Z,1.00
2019-04-26T16:00:39.991Z,1.00
2019-04-26T16:03:08.421Z,0.90
2019-04-26T16:05:37.196Z,0.70
2019-04-26T16:08:05.878Z,0.90
2019-04-26T16:10:38.246Z,1.00
2019-04-26T16:13:18.017Z,0.90
2019-04-26T16:15:33.962Z,0.97
2019-04-26T16:18:03.857Z,0.70
2019-04-26T16:20:38.044Z,0.90
2019-04-26T16:23:06.276Z,0.80
2019-04-26T16:25:34.413Z,0.90
2019-04-26T16:28:15.890Z,1.40
2019-04-26T16:30:54.645Z,0.90
2019-04-26T16:33:36.777Z,1.00
2019-04-26T16:36:06.274Z,1.00
2019-04-26T16:38:35.605Z,1.00
2019-04-26T16:41:04.869Z,1.00
2019-04-26T16:43:37.733Z,1.13
2019-04-26T16:46:03.425Z,1.00
2019-04-26T16:48:32.010Z,0.97
2019-04-26T16:51:01.021Z,1.00
2019-04-26T16:54:02.193Z,0.80
2019-04-26T16:56:00.997Z,0.90
2019-04-26T16:58:30.928Z,1.60
2019-04-26T17:00:59.318Z,1.90
2019-04-26T17:03:27.803Z,1.40
2019-04-26T17:06:04.595Z,1.03
2019-04-26T17:08:26.049Z,1.10
2019-04-26T17:10:56.785Z,0.90
2019-04-26T17:13:29.861Z,0.83
2019-04-26T17:15:58.304Z,1.00
2019-04-26T17:18:27.069Z,1.00
2019-04-26T17:20:54.469Z,1.30
2019-04-26T17:23:29.854Z,1.40
2019-04-26T17:26:05.596Z,1.20
2019-04-26T17:28:33.688Z,1.20
2019-04-26T17:31:02.145Z,0.90
2019-04-26T17:33:32.535Z,1.20
2019-04-26T17:36:00.814Z,1.00
2019-04-26T17:38:31.167Z,1.30
2019-04-26T17:41:00.637Z,1.07
2019-04-26T17:43:30.523Z,1.20
2019-04-26T17:45:58.734Z,1.00
2019-04-26T17:48:26.880Z,1.10
2019-04-26T17:50:54.977Z,1.00
2019-04-26T17:53:28.828Z,1.20
2019-04-26T17:55:54.803Z,1.40
2019-04-26T17:58:31.120Z,1.30
2019-04-26T18:00:56.460Z,1.47
2019-04-26T18:03:24.185Z,1.40
2019-04-26T18:05:57.282Z,1.50
2019-04-26T18:08:36.110Z,1.20
2019-04-26T18:10:52.345Z,1.40
2019-04-26T18:13:20.796Z,1.40
2019-04-26T18:15:49.005Z,1.40
2019-04-26T18:18:34.227Z,1.40
2019-04-26T18:21:20.590Z,1.57
2019-04-26T18:23:54.589Z,1.50
2019-04-26T18:26:21.503Z,1.70
2019-04-26T18:28:53.361Z,1.57
2019-04-26T18:31:22.182Z,1.73
2019-04-26T18:33:50.504Z,1.83
2019-04-26T18:36:23.504Z,1.90
2019-04-26T18:38:51.572Z,1.70
2019-04-26T18:41:22.980Z,2.30
2019-04-26T18:43:54.124Z,1.70
2019-04-26T18:46:24.338Z,2.10
2019-04-26T18:48:53.534Z,2.00
2019-04-26T18:51:23.513Z,2.10
2019-04-26T18:54:02.788Z,2.10
2019-04-26T18:56:33.703Z,2.10
2019-04-26T18:59:03.172Z,2.40
2019-04-26T19:01:34.675Z,2.60
2019-04-26T19:04:09.858Z,2.47
2019-04-26T19:06:33.989Z,2.20
2019-04-26T19:09:05.634Z,2.47
2019-04-26T19:11:32.708Z,3.27
2019-04-26T19:14:19.878Z,2.97
2019-04-26T19:16:56.872Z,2.30
2019-04-26T19:19:33.529Z,2.70
2019-04-26T19:22:09.559Z,2.57
2019-04-26T19:24:38.575Z,2.53
2019-04-26T19:27:06.312Z,2.53
2019-04-26T19:29:36.193Z,2.30
2019-04-26T19:32:05.254Z,2.33
2019-04-26T19:34:33.667Z,2.20
2019-04-26T19:37:03.387Z,2.43
2019-04-26T19:39:35.051Z,2.20
2019-04-26T19:42:02.533Z,2.43
2019-04-26T19:45:10.765Z,2.27
2019-04-26T19:47:27.777Z,2.10
2019-04-26T19:50:03.110Z,2.43
2019-04-26T19:52:39.595Z,2.20
2019-04-26T19:55:11.476Z,2.93
2019-04-26T19:57:42.646Z,2.83
2019-04-26T20:00:12.172Z,2.40
2019-04-26T20:02:42.002Z,1.90
2019-04-26T20:05:11.896Z,2.20
2019-04-26T20:07:41.649Z,4.83
2019-04-26T20:10:09.964Z,3.00
2019-04-26T20:12:38.398Z,2.50
2019-04-26T20:15:07.765Z,2.30
2019-04-26T20:17:36.219Z,2.43
2019-04-26T20:20:16.931Z,1.87
2019-04-26T20:22:34.934Z,2.07
2019-04-26T20:25:03.196Z,2.03
2019-04-26T20:27:32.336Z,1.90
2019-04-26T20:30:02.373Z,1.73
2019-04-26T20:32:32.344Z,2.10
2019-04-26T20:35:14.456Z,1.80
2019-04-26T20:37:45.039Z,1.70
2019-04-26T20:40:20.414Z,1.87
2019-04-26T20:42:42.457Z,1.73
2019-04-26T20:45:13.534Z,2.00
2019-04-26T20:47:41.660Z,1.90
2019-04-26T20:50:11.995Z,2.10
2019-04-26T20:52:41.432Z,2.07
2019-04-26T20:55:09.681Z,1.90
2019-04-26T20:57:37.758Z,1.93
2019-04-26T21:00:06.684Z,2.40
2019-04-26T21:02:34.787Z,2.40
2019-04-26T21:05:06.107Z,2.90
2019-04-26T21:07:34.281Z,2.80
2019-04-26T21:10:02.797Z,2.70
2019-04-26T21:12:31.433Z,3.00
2019-04-26T21:14:59.565Z,2.73
2019-04-26T21:17:28.291Z,3.03
2019-04-26T21:19:58.578Z,3.30
2019-04-26T21:22:28.743Z,3.30
2019-04-26T21:25:04.329Z,3.40
2019-04-26T21:27:33.451Z,3.67
2019-04-26T21:30:03.518Z,3.85
2019-04-26T21:32:51.495Z,3.40
2019-04-26T21:35:24.983Z,3.40
2019-04-26T21:37:58.239Z,3.80
2019-04-26T21:40:27.972Z,4.37
2019-04-26T21:42:59.435Z,3.10
2019-04-26T21:45:30.763Z,3.40
2019-04-26T21:47:56.016Z,4.30
2019-04-26T21:50:24.125Z,4.17
2019-04-26T21:52:54.015Z,4.10
2019-04-26T21:55:27.761Z,4.30
2019-04-26T21:57:53.836Z,4.37
2019-04-26T22:00:24.886Z,4.20
2019-04-26T22:02:53.457Z,4.40
2019-04-26T22:05:22.371Z,4.60
2019-04-26T22:07:50.452Z,4.60
2019-04-26T22:10:20.248Z,4.80
2019-04-26T22:12:48.662Z,4.60
2019-04-26T22:15:29.525Z,4.90
2019-04-26T22:17:59.242Z,5.03
2019-04-26T22:20:33.631Z,4.80
2019-04-26T22:23:06.731Z,4.90
2019-04-26T22:25:36.540Z,5.50
2019-04-26T22:28:04.941Z,5.10
2019-04-26T22:30:33.203Z,4.63
2019-04-26T22:33:02.570Z,5.13
2019-04-26T22:35:31.274Z,5.63
2019-04-26T22:37:59.360Z,5.60
2019-04-26T22:40:27.741Z,5.70
2019-04-26T22:42:57.867Z,5.67
2019-04-26T22:45:30.673Z,5.57
2019-04-26T22:48:00.392Z,6.00
2019-04-26T22:50:28.494Z,5.80
2019-04-26T22:52:56.909Z,6.00
2019-04-26T22:55:27.563Z,5.83
2019-04-26T22:57:54.894Z,5.60
2019-04-26T23:00:29.325Z,5.67
2019-04-26T23:02:58.014Z,6.00
2019-04-26T23:05:25.266Z,5.67
2019-04-26T23:08:13.776Z,5.53
2019-04-26T23:10:43.853Z,5.67
2019-04-26T23:13:13.908Z,5.50
2019-04-26T23:16:08.582Z,5.50
2019-04-26T23:18:43.854Z,5.80
2019-04-26T23:21:18.056Z,5.50
2019-04-26T23:23:46.485Z,5.87
2019-04-26T23:26:14.911Z,6.13
2019-04-26T23:28:43.393Z,6.23
2019-04-26T23:31:13.409Z,6.07
2019-04-26T23:33:42.935Z,6.83
2019-04-26T23:36:11.515Z,6.53
2019-04-26T23:38:39.925Z,6.97
2019-04-26T23:41:08.364Z,7.10
2019-04-26T23:43:36.786Z,6.83
2019-04-26T23:46:05.189Z,7.23
2019-04-26T23:48:33.618Z,7.17
2019-04-26T23:51:04.921Z,7.10
2019-04-26T23:53:33.913Z,7.33
2019-04-26T23:56:02.606Z,7.23
2019-04-26T23:58:31.053Z,7.37
